createdAt,value
2017-10-19T00:00:12.576Z,26.77
2017-10-19T00:02:40.941Z,23.60
2017-10-19T00:05:08.545Z,19.97
2017-10-19T00:07:36.130Z,24.70
2017-10-19T00:10:03.745Z,22.83
2017-10-19T00:12:32.112Z,29.30
2017-10-19T00:14:59.737Z,27.60
2017-10-19T00:17:27.346Z,23.60
2017-10-19T00:19:55.739Z,19.47
2017-10-19T00:22:23.338Z,27.20
2017-10-19T00:24:50.939Z,26.60
2017-10-19T00:27:19.362Z,25.30
2017-10-19T00:29:46.964Z,28.33
2017-10-19T00:32:14.595Z,26.20
2017-10-19T00:34:42.462Z,27.17
2017-10-19T00:37:10.136Z,27.30
2017-10-19T00:39:37.754Z,26.43
2017-10-19T00:42:05.339Z,30.20
2017-10-19T00:44:32.926Z,27.40
2017-10-19T00:47:00.515Z,31.63
2017-10-19T00:49:28.119Z,27.00
2017-10-19T00:51:55.698Z,29.97
2017-10-19T00:54:23.278Z,25.23
2017-10-19T00:56:50.886Z,29.90
2017-10-19T00:59:18.494Z,25.97
2017-10-19T01:01:46.103Z,37.37
2017-10-19T01:04:14.440Z,26.03
2017-10-19T01:06:42.095Z,32.97
2017-10-19T01:09:09.764Z,39.73
2017-10-19T01:14:12.003Z,30.93
2017-10-19T01:16:40.381Z,29.10
2017-10-19T01:19:07.958Z,29.40
2017-10-19T01:21:35.530Z,33.47
2017-10-19T01:24:03.114Z,25.30
2017-10-19T01:26:30.723Z,28.40
2017-10-19T01:28:59.075Z,29.73
2017-10-19T01:31:26.656Z,25.23
2017-10-19T01:33:55.034Z,27.33
2017-10-19T01:36:23.368Z,30.17
2017-10-19T01:38:50.952Z,27.00
2017-10-19T01:41:18.554Z,33.30
2017-10-19T01:43:46.131Z,25.70
2017-10-19T01:46:13.698Z,28.23
2017-10-19T01:48:41.261Z,27.33
2017-10-19T01:51:08.870Z,28.43
2017-10-19T01:53:36.455Z,25.60
2017-10-19T01:56:04.033Z,32.00
2017-10-19T01:58:32.224Z,27.73
2017-10-19T02:00:59.811Z,37.37
2017-10-19T02:03:27.436Z,27.60
2017-10-19T02:05:55.023Z,51.50
2017-10-19T02:08:22.609Z,26.00
2017-10-19T02:10:50.946Z,33.13
2017-10-19T02:13:18.531Z,30.60
2017-10-19T02:15:46.131Z,29.07
2017-10-19T02:18:14.530Z,45.33
2017-10-19T02:20:42.118Z,29.63
2017-10-19T02:23:09.685Z,29.33
2017-10-19T02:25:37.294Z,27.90
2017-10-19T02:28:05.747Z,32.77
2017-10-19T02:30:34.490Z,29.00
2017-10-19T02:33:02.114Z,29.37
2017-10-19T02:35:30.476Z,30.13
2017-10-19T02:37:58.074Z,31.30
2017-10-19T02:40:25.671Z,29.03
2017-10-19T02:42:53.265Z,34.73
2017-10-19T02:45:20.861Z,30.53
2017-10-19T02:47:48.454Z,30.47
2017-10-19T02:50:16.090Z,34.97
2017-10-19T02:52:43.675Z,29.43
2017-10-19T02:55:11.244Z,31.93
2017-10-19T02:57:38.825Z,28.47
2017-10-19T03:00:06.419Z,27.27
2017-10-19T03:02:34.778Z,30.50
2017-10-19T03:05:02.425Z,34.63
2017-10-19T03:07:30.076Z,28.33
2017-10-19T03:09:57.641Z,32.13
2017-10-19T03:12:26.035Z,32.90
2017-10-19T03:14:53.654Z,38.50
2017-10-19T03:17:21.210Z,29.43
2017-10-19T03:19:48.801Z,35.27
2017-10-19T03:22:16.376Z,33.80
2017-10-19T03:24:44.849Z,31.80
2017-10-19T03:27:12.457Z,29.57
2017-10-19T03:29:40.226Z,26.03
2017-10-19T03:32:07.793Z,36.03
2017-10-19T03:34:35.421Z,33.30
2017-10-19T03:37:03.048Z,33.20
2017-10-19T03:39:30.637Z,32.77
2017-10-19T03:41:58.200Z,37.40
2017-10-19T03:44:25.849Z,31.20
2017-10-19T03:46:53.462Z,33.40
2017-10-19T03:49:21.354Z,29.53
2017-10-19T03:51:48.938Z,35.80
2017-10-19T03:54:16.542Z,32.17
2017-10-19T03:56:45.737Z,30.63
2017-10-19T03:59:14.082Z,29.47
2017-10-19T04:01:41.677Z,32.57
2017-10-19T04:04:10.014Z,28.87
2017-10-19T04:06:37.605Z,33.20
2017-10-19T04:09:05.946Z,38.13
2017-10-19T04:11:33.561Z,31.83
2017-10-19T04:14:01.174Z,38.03
2017-10-19T04:16:28.750Z,31.40
2017-10-19T04:18:56.366Z,36.27
2017-10-19T04:21:23.950Z,35.00
2017-10-19T04:23:51.561Z,36.60
2017-10-19T04:26:19.979Z,33.47
2017-10-19T04:28:47.584Z,35.37
2017-10-19T04:31:15.251Z,36.20
2017-10-19T04:33:42.822Z,38.73
2017-10-19T04:36:11.290Z,40.50
2017-10-19T04:38:38.866Z,43.00
2017-10-19T04:41:07.271Z,33.63
2017-10-19T04:43:34.887Z,38.67
2017-10-19T04:46:02.517Z,48.47
2017-10-19T04:48:30.156Z,35.03
2017-10-19T04:50:57.762Z,40.00
2017-10-19T04:53:25.878Z,36.67
2017-10-19T04:55:54.262Z,33.67
2017-10-19T04:58:21.866Z,33.70
2017-10-19T05:00:49.457Z,38.83
2017-10-19T05:03:17.045Z,36.67
2017-10-19T05:05:44.648Z,38.60
2017-10-19T05:08:12.226Z,49.17
2017-10-19T05:10:39.803Z,34.03
2017-10-19T05:13:07.414Z,37.10
2017-10-19T05:15:35.029Z,36.10
2017-10-19T05:18:02.697Z,32.47
2017-10-19T05:20:31.050Z,37.13
2017-10-19T05:22:58.648Z,37.60
2017-10-19T05:25:26.996Z,32.50
2017-10-19T05:27:54.588Z,32.43
2017-10-19T05:30:22.947Z,33.07
2017-10-19T05:32:51.422Z,34.60
2017-10-19T05:35:19.032Z,38.47
2017-10-19T05:37:46.600Z,33.50
2017-10-19T05:40:14.213Z,37.27
2017-10-19T05:42:41.815Z,36.97
2017-10-19T05:45:09.392Z,39.10
2017-10-19T05:47:37.751Z,33.73
2017-10-19T05:50:05.343Z,44.33
2017-10-19T05:52:32.943Z,37.10
2017-10-19T05:55:01.299Z,38.00
2017-10-19T05:57:28.930Z,34.67
2017-10-19T05:59:56.586Z,40.90
2017-10-19T06:02:24.195Z,40.53
2017-10-19T06:04:51.818Z,34.93
2017-10-19T06:07:19.410Z,44.83
2017-10-19T06:09:47.020Z,35.27
2017-10-19T06:12:14.633Z,39.90
2017-10-19T06:14:42.219Z,40.23
2017-10-19T06:17:10.542Z,41.60
2017-10-19T06:19:38.133Z,42.20
2017-10-19T06:22:05.746Z,38.70
2017-10-19T06:24:33.384Z,45.63
2017-10-19T06:27:01.731Z,35.30
2017-10-19T06:29:29.306Z,34.30
2017-10-19T06:31:56.908Z,36.83
2017-10-19T06:34:25.278Z,39.43
2017-10-19T06:36:53.673Z,39.43
2017-10-19T06:39:21.259Z,41.73
2017-10-19T06:41:48.852Z,34.70
2017-10-19T06:44:16.457Z,34.43
2017-10-19T06:46:44.078Z,34.93
2017-10-19T06:49:11.656Z,33.53
2017-10-19T06:51:40.028Z,35.77
2017-10-19T06:54:08.388Z,35.03
2017-10-19T06:56:35.999Z,34.17
2017-10-19T06:59:03.583Z,42.23
2017-10-19T07:01:31.154Z,33.10
2017-10-19T07:03:59.119Z,31.33
2017-10-19T07:06:29.681Z,34.70
2017-10-19T07:08:57.271Z,31.73
2017-10-19T07:11:25.913Z,37.37
2017-10-19T07:13:53.511Z,29.80
2017-10-19T07:16:21.865Z,33.13
2017-10-19T07:18:50.191Z,29.13
2017-10-19T07:21:17.783Z,38.50
2017-10-19T07:23:45.419Z,31.67
2017-10-19T07:26:13.047Z,33.93
2017-10-19T07:28:41.412Z,25.40
2017-10-19T07:31:09.002Z,42.23
2017-10-19T07:33:37.407Z,34.70
2017-10-19T07:36:05.022Z,38.53
2017-10-19T07:38:33.367Z,35.03
2017-10-19T07:41:00.988Z,32.90
2017-10-19T07:43:29.425Z,32.50
2017-10-19T07:45:57.039Z,34.20
2017-10-19T07:48:24.618Z,27.70
2017-10-19T07:50:52.209Z,31.80
2017-10-19T07:53:19.815Z,30.17
2017-10-19T07:55:48.147Z,31.90
2017-10-19T07:58:15.994Z,39.27
2017-10-19T08:00:44.348Z,26.80
2017-10-19T08:03:12.747Z,28.53
2017-10-19T08:05:40.326Z,26.57
2017-10-19T08:08:08.050Z,33.43
2017-10-19T08:10:36.427Z,24.43
2017-10-19T08:13:04.051Z,26.37
2017-10-19T08:15:31.613Z,28.20
2017-10-19T08:18:00.024Z,23.87
2017-10-19T08:20:28.400Z,22.03
2017-10-19T08:22:56.776Z,19.23
2017-10-19T08:25:25.139Z,31.67
2017-10-19T08:27:52.731Z,35.23
2017-10-19T08:30:20.331Z,31.83
2017-10-19T08:32:47.969Z,29.20
2017-10-19T08:35:15.573Z,26.50
2017-10-19T08:37:43.171Z,21.47
2017-10-19T08:40:10.750Z,18.97
2017-10-19T08:42:38.334Z,20.60
2017-10-19T08:45:06.256Z,28.50
2017-10-19T08:47:34.633Z,20.90
2017-10-19T08:50:02.979Z,24.73
2017-10-19T08:52:30.588Z,21.17
2017-10-19T08:54:58.986Z,21.30
2017-10-19T08:57:26.826Z,33.00
2017-10-19T08:59:55.184Z,27.13
2017-10-19T09:02:22.773Z,20.37
2017-10-19T09:04:50.414Z,22.43
2017-10-19T09:07:18.775Z,23.20
2017-10-19T09:09:46.381Z,23.83
2017-10-19T09:12:13.984Z,21.43
2017-10-19T09:14:41.563Z,23.03
2017-10-19T09:17:09.666Z,20.47
2017-10-19T09:19:38.023Z,21.67
2017-10-19T09:22:05.627Z,20.00
2017-10-19T09:24:33.215Z,20.40
2017-10-19T09:27:00.822Z,25.47
2017-10-19T09:29:29.185Z,18.07
2017-10-19T09:31:56.780Z,16.80
2017-10-19T09:34:24.392Z,18.60
2017-10-19T09:36:52.008Z,25.70
2017-10-19T09:39:19.619Z,19.13
2017-10-19T09:41:47.192Z,18.93
2017-10-19T09:44:14.788Z,20.23
2017-10-19T09:46:42.399Z,17.90
2017-10-19T09:49:10.038Z,23.53
2017-10-19T09:51:37.741Z,21.97
2017-10-19T09:54:06.150Z,16.67
2017-10-19T09:56:33.801Z,21.33
2017-10-19T09:59:02.159Z,20.00
2017-10-19T10:01:29.837Z,16.70
2017-10-19T10:03:58.215Z,18.03
2017-10-19T10:06:25.818Z,20.07
2017-10-19T10:08:54.866Z,23.43
2017-10-19T10:11:22.509Z,19.23
2017-10-19T10:13:50.123Z,18.63
2017-10-19T10:16:17.748Z,16.60
2017-10-19T10:18:45.372Z,26.30
2017-10-19T10:21:12.979Z,19.70
2017-10-19T10:23:41.404Z,21.10
2017-10-19T10:26:09.399Z,21.70
2017-10-19T10:28:37.770Z,21.93
2017-10-19T10:31:05.393Z,22.60
2017-10-19T10:33:33.771Z,18.40
2017-10-19T10:36:02.279Z,24.80
2017-10-19T10:38:30.639Z,16.57
2017-10-19T10:40:59.023Z,18.77
2017-10-19T10:43:26.653Z,30.63
2017-10-19T10:45:54.284Z,17.30
2017-10-19T10:48:21.847Z,18.27
2017-10-19T10:50:49.438Z,16.80
2017-10-19T10:53:17.262Z,24.40
2017-10-19T10:55:45.707Z,14.90
2017-10-19T10:58:14.073Z,23.00
2017-10-19T11:00:41.675Z,21.40
2017-10-19T11:03:09.304Z,14.80
2017-10-19T11:05:37.658Z,26.67
2017-10-19T11:08:05.298Z,18.80
2017-10-19T11:10:32.976Z,17.00
2017-10-19T11:13:03.493Z,15.40
2017-10-19T11:15:31.106Z,12.70
2017-10-19T11:17:59.476Z,16.87
2017-10-19T11:20:27.853Z,16.33
2017-10-19T11:22:55.413Z,17.23
2017-10-19T11:25:24.467Z,18.50
2017-10-19T11:27:52.168Z,18.97
2017-10-19T11:30:20.524Z,16.23
2017-10-19T11:32:48.113Z,16.43
2017-10-19T11:35:15.700Z,20.23
2017-10-19T11:37:43.303Z,14.43
2017-10-19T11:40:10.887Z,16.50
2017-10-19T11:42:38.462Z,14.87
2017-10-19T11:45:06.821Z,16.10
2017-10-19T11:47:34.436Z,17.87
2017-10-19T11:50:02.022Z,13.43
2017-10-19T11:52:29.590Z,15.60
2017-10-19T11:54:57.190Z,18.43
2017-10-19T11:57:25.531Z,16.07
2017-10-19T11:59:53.118Z,16.70
2017-10-19T12:02:22.567Z,14.70
2017-10-19T12:04:50.174Z,18.23
2017-10-19T12:07:17.762Z,15.43
2017-10-19T12:09:46.137Z,16.87
2017-10-19T12:12:15.247Z,14.53
2017-10-19T12:14:42.845Z,15.20
2017-10-19T12:17:10.872Z,14.20
2017-10-19T12:19:39.231Z,18.17
2017-10-19T12:22:06.848Z,13.17
2017-10-19T12:24:34.447Z,21.27
2017-10-19T12:27:02.022Z,13.60
2017-10-19T12:29:30.387Z,14.13
2017-10-19T12:31:58.022Z,13.43
2017-10-19T12:34:26.385Z,15.20
2017-10-19T12:36:54.015Z,11.90
2017-10-19T12:39:22.366Z,16.50
2017-10-19T12:41:50.754Z,17.33
2017-10-19T12:44:18.335Z,18.53
2017-10-19T12:46:46.663Z,14.87
2017-10-19T12:49:14.262Z,24.03
2017-10-19T12:51:41.852Z,12.40
2017-10-19T12:54:09.468Z,14.30
2017-10-19T12:56:37.088Z,13.70
2017-10-19T12:59:04.669Z,14.50
2017-10-19T13:01:32.273Z,12.23
2017-10-19T13:03:59.937Z,11.43
2017-10-19T13:06:30.001Z,11.50
2017-10-19T13:08:58.414Z,20.87
2017-10-19T13:11:26.083Z,12.70
2017-10-19T13:13:55.098Z,12.73
2017-10-19T13:16:26.039Z,12.13
2017-10-19T13:18:54.660Z,17.23
2017-10-19T13:21:23.901Z,15.37
2017-10-19T13:23:57.624Z,11.90
2017-10-19T13:26:25.253Z,12.63
2017-10-19T13:28:53.666Z,14.93
2017-10-19T13:31:22.051Z,17.23
2017-10-19T13:33:50.426Z,23.20
2017-10-19T13:36:18.996Z,13.03
2017-10-19T13:38:47.311Z,12.03
2017-10-19T13:41:15.782Z,21.60
2017-10-19T13:43:44.166Z,10.10
2017-10-19T13:46:12.527Z,13.77
2017-10-19T13:48:40.136Z,12.80
2017-10-19T13:51:07.729Z,15.20
2017-10-19T13:53:35.319Z,12.93
2017-10-19T13:56:03.678Z,18.67
2017-10-19T13:58:31.274Z,12.60
2017-10-19T14:00:58.855Z,21.10
2017-10-19T14:03:26.640Z,17.23
2017-10-19T14:05:54.330Z,9.07
2017-10-19T14:08:21.926Z,14.53
2017-10-19T14:10:50.327Z,11.27
2017-10-19T14:13:18.064Z,21.77
2017-10-19T14:15:46.419Z,12.20
2017-10-19T14:18:14.928Z,18.23
2017-10-19T14:20:43.270Z,12.63
2017-10-19T14:23:10.876Z,14.53
2017-10-19T14:25:38.493Z,13.10
2017-10-19T14:28:06.110Z,11.73
2017-10-19T14:30:33.756Z,16.03
2017-10-19T14:33:02.111Z,14.23
2017-10-19T14:35:29.702Z,14.77
2017-10-19T14:37:57.459Z,11.53
2017-10-19T14:40:25.828Z,12.73
2017-10-19T14:42:53.450Z,14.83
2017-10-19T14:45:21.064Z,15.93
2017-10-19T14:47:48.651Z,13.30
2017-10-19T14:50:16.268Z,14.83
2017-10-19T14:52:43.862Z,16.13
2017-10-19T14:55:11.447Z,19.23
2017-10-19T14:57:39.071Z,10.53
2017-10-19T15:00:07.424Z,13.90
2017-10-19T15:02:35.018Z,14.63
2017-10-19T15:05:02.626Z,16.57
2017-10-19T15:07:30.236Z,24.80
2017-10-19T15:09:58.596Z,13.40
2017-10-19T15:12:26.845Z,21.50
2017-10-19T15:14:54.434Z,20.60
2017-10-19T15:17:22.815Z,21.20
2017-10-19T15:19:51.184Z,18.00
2017-10-19T15:22:18.899Z,12.30
2017-10-19T15:24:47.204Z,25.83
2017-10-19T15:27:14.795Z,21.70
2017-10-19T15:29:42.404Z,22.00
2017-10-19T15:32:10.022Z,14.17
2017-10-19T15:34:37.627Z,20.67
2017-10-19T15:37:05.223Z,13.43
2017-10-19T15:39:32.863Z,15.83
2017-10-19T15:42:00.464Z,15.87
2017-10-19T15:44:28.845Z,20.40
2017-10-19T15:46:56.462Z,18.60
2017-10-19T15:49:24.066Z,14.03
2017-10-19T15:51:51.684Z,16.53
2017-10-19T15:54:19.258Z,22.17
2017-10-19T15:56:46.847Z,19.60
2017-10-19T15:59:14.437Z,16.33
2017-10-19T16:01:42.043Z,19.50
2017-10-19T16:04:09.681Z,16.90
2017-10-19T16:06:37.316Z,14.80
2017-10-19T16:09:05.647Z,22.13
2017-10-19T16:11:33.235Z,14.07
2017-10-19T16:14:00.866Z,16.87
2017-10-19T16:16:28.568Z,15.13
2017-10-19T16:18:56.202Z,17.80
2017-10-19T16:21:27.510Z,23.20
2017-10-19T16:33:40.112Z,20.03
2017-10-19T16:36:07.700Z,17.10
2017-10-19T16:38:35.294Z,18.67
2017-10-19T16:41:03.659Z,14.50
2017-10-19T16:43:31.243Z,18.83
2017-10-19T16:45:58.879Z,17.90
2017-10-19T16:48:26.489Z,20.33
2017-10-19T16:50:54.079Z,22.10
2017-10-19T16:53:21.719Z,24.80
2017-10-19T16:55:49.309Z,22.57
2017-10-19T16:58:16.951Z,29.27
2017-10-19T17:00:44.503Z,20.97
2017-10-19T17:03:12.167Z,18.73
2017-10-19T17:05:40.980Z,19.40
2017-10-19T17:08:08.561Z,24.30
2017-10-19T17:10:36.193Z,17.33
2017-10-19T17:13:03.812Z,19.40
2017-10-19T17:15:32.201Z,18.20
2017-10-19T17:18:00.578Z,18.63
2017-10-19T17:20:28.162Z,25.83
2017-10-19T17:22:55.809Z,20.73
2017-10-19T17:25:23.391Z,22.23
2017-10-19T17:27:50.990Z,19.43
2017-10-19T17:30:18.606Z,17.43
2017-10-19T17:32:46.228Z,20.47
2017-10-19T17:35:14.616Z,21.87
2017-10-19T17:37:43.018Z,23.53
2017-10-19T17:40:10.663Z,37.13
2017-10-19T17:42:39.310Z,28.30
2017-10-19T17:45:06.885Z,28.83
2017-10-19T17:47:34.773Z,31.93
2017-10-19T17:50:03.111Z,28.03
2017-10-19T17:52:30.759Z,33.10
2017-10-19T17:54:58.309Z,30.30
2017-10-19T17:57:25.931Z,27.80
2017-10-19T17:59:53.629Z,22.97
2017-10-19T18:02:21.258Z,27.57
2017-10-19T18:04:49.646Z,24.10
2017-10-19T18:07:18.019Z,29.60
2017-10-19T18:09:46.418Z,26.70
2017-10-19T18:12:14.017Z,20.53
2017-10-19T18:14:41.639Z,18.73
2017-10-19T18:17:09.264Z,17.40
2017-10-19T18:19:36.879Z,25.20
2017-10-19T18:22:04.506Z,18.53
2017-10-19T18:24:32.929Z,24.60
2017-10-19T18:27:00.562Z,17.80
2017-10-19T18:29:28.984Z,32.53
2017-10-19T18:31:56.571Z,23.40
2017-10-19T18:34:24.372Z,25.83
2017-10-19T18:36:53.470Z,24.40
2017-10-19T18:39:21.063Z,22.53
2017-10-19T18:41:49.552Z,24.03
2017-10-19T18:44:17.978Z,20.70
2017-10-19T18:46:46.354Z,17.07
2017-10-19T18:49:14.763Z,25.93
2017-10-19T18:51:42.373Z,20.93
2017-10-19T18:54:09.992Z,20.93
2017-10-19T18:56:37.623Z,22.50
2017-10-19T18:59:05.992Z,19.97
2017-10-19T19:01:33.669Z,28.20
2017-10-19T19:04:01.303Z,26.10
2017-10-19T19:06:28.923Z,22.67
2017-10-19T19:08:56.878Z,24.83
2017-10-19T19:11:24.490Z,22.97
2017-10-19T19:13:52.213Z,21.00
2017-10-19T19:16:19.867Z,26.60
2017-10-19T19:18:47.500Z,19.60
2017-10-19T19:21:15.144Z,21.23
2017-10-19T19:23:42.775Z,20.60
2017-10-19T19:26:10.440Z,17.93
2017-10-19T19:28:38.019Z,21.17
2017-10-19T19:31:07.863Z,18.60
2017-10-19T19:33:35.463Z,22.93
2017-10-19T19:36:03.099Z,25.70
2017-10-19T19:38:31.507Z,15.57
2017-10-19T19:41:00.076Z,30.53
2017-10-19T19:43:27.671Z,18.43
2017-10-19T19:45:56.042Z,31.67
2017-10-19T19:48:23.717Z,19.73
2017-10-19T19:50:51.369Z,20.23
2017-10-19T19:53:19.221Z,19.33
2017-10-19T19:55:47.924Z,23.00
2017-10-19T19:58:15.523Z,39.73
2017-10-19T20:00:43.314Z,19.93
2017-10-19T20:03:11.748Z,23.00
2017-10-19T20:05:39.370Z,21.17
2017-10-19T20:08:06.972Z,28.63
2017-10-19T20:10:34.591Z,21.93
2017-10-19T20:13:02.992Z,20.40
2017-10-19T20:15:30.598Z,16.37
2017-10-19T20:17:58.435Z,23.77
2017-10-19T20:20:26.065Z,22.00
2017-10-19T20:22:53.669Z,19.20
2017-10-19T20:25:21.302Z,27.53
2017-10-19T20:27:48.885Z,26.50
2017-10-19T20:30:16.491Z,28.03
2017-10-19T20:32:44.110Z,25.80
2017-10-19T20:35:11.702Z,19.50
2017-10-19T20:37:39.318Z,24.07
2017-10-19T20:40:06.938Z,20.17
2017-10-19T20:42:35.291Z,18.70
2017-10-19T20:45:02.878Z,34.23
2017-10-19T20:47:31.266Z,23.33
2017-10-19T20:49:58.862Z,26.47
2017-10-19T20:52:26.459Z,21.23
2017-10-19T20:54:54.059Z,21.03
2017-10-19T20:57:22.387Z,20.97
2017-10-19T20:59:52.313Z,25.50
2017-10-19T21:02:19.925Z,26.33
2017-10-19T21:04:47.624Z,22.50
2017-10-19T21:07:15.196Z,18.80
2017-10-19T21:09:42.823Z,25.67
2017-10-19T21:12:10.408Z,17.60
2017-10-19T21:14:37.983Z,18.87
2017-10-19T21:17:05.597Z,17.13
2017-10-19T21:19:33.196Z,26.13
2017-10-19T21:22:00.797Z,19.90
2017-10-19T21:24:29.145Z,19.07
2017-10-19T21:26:56.750Z,22.30
2017-10-19T21:29:25.114Z,21.37
2017-10-19T21:31:53.479Z,24.57
2017-10-19T21:34:21.077Z,19.93
2017-10-19T21:36:49.570Z,19.37
2017-10-19T21:39:17.171Z,33.40
2017-10-19T21:41:44.892Z,22.07
2017-10-19T21:44:12.644Z,17.90
2017-10-19T21:46:41.323Z,21.63
2017-10-19T21:49:10.146Z,19.63
2017-10-19T21:51:38.046Z,19.93
2017-10-19T21:54:05.739Z,23.33
2017-10-19T21:56:33.317Z,20.90
2017-10-19T21:59:01.687Z,19.90
2017-10-19T22:01:30.326Z,17.90
2017-10-19T22:03:58.748Z,18.33
2017-10-19T22:06:27.286Z,19.30
2017-10-19T22:08:54.875Z,17.87
2017-10-19T22:11:22.598Z,17.30
2017-10-19T22:13:50.181Z,23.47
2017-10-19T22:16:17.836Z,17.13
2017-10-19T22:18:46.279Z,15.30
2017-10-19T22:21:14.617Z,19.13
2017-10-19T22:23:42.212Z,21.67
2017-10-19T22:26:10.561Z,18.03
2017-10-19T22:28:38.236Z,15.57
2017-10-19T22:31:05.779Z,21.17
2017-10-19T22:33:34.121Z,18.60
2017-10-19T22:36:01.720Z,22.30
2017-10-19T22:38:29.324Z,20.87
2017-10-19T22:40:56.927Z,19.57
2017-10-19T22:43:24.567Z,14.80
2017-10-19T22:45:52.122Z,32.87
2017-10-19T22:48:19.716Z,15.33
2017-10-19T22:50:48.147Z,21.00
2017-10-19T22:53:16.468Z,14.37
2017-10-19T22:55:44.057Z,16.27
2017-10-19T22:58:11.655Z,23.90
2017-10-19T23:00:39.354Z,13.73
2017-10-19T23:03:06.954Z,17.57
2017-10-19T23:05:35.289Z,17.10
2017-10-19T23:08:04.281Z,14.20
2017-10-19T23:10:31.868Z,14.03
2017-10-19T23:12:59.474Z,16.87
2017-10-19T23:15:27.062Z,14.90
2017-10-19T23:17:54.933Z,14.40
2017-10-19T23:20:23.282Z,16.10
2017-10-19T23:22:51.848Z,16.97
2017-10-19T23:25:19.447Z,17.03
2017-10-19T23:27:47.006Z,19.27
2017-10-19T23:30:14.611Z,12.53
2017-10-19T23:32:42.204Z,16.50
2017-10-19T23:35:11.298Z,17.70
2017-10-19T23:37:39.641Z,16.57
2017-10-19T23:40:07.580Z,14.93
2017-10-19T23:42:35.190Z,15.03
2017-10-19T23:45:04.073Z,16.40
2017-10-19T23:47:31.695Z,15.07
2017-10-19T23:49:59.268Z,14.73
2017-10-19T23:52:27.630Z,16.53
2017-10-19T23:54:55.758Z,21.60
2017-10-19T23:57:23.419Z,13.13
2017-10-19T23:59:51.020Z,16.53
